sensor_id;sensor_type;location;lat;lon;timestamp;P1;durP1;ratioP1;P2;durP2;ratioP2
74415;SDS011;62850;42.428;25.618;2023-04-03T00:02:16;2.40;;;0.95;;
74415;SDS011;62850;42.428;25.618;2023-04-03T00:04:41;1.85;;;0.80;;
74415;SDS011;62850;42.428;25.618;2023-04-03T00:07:07;1.83;;;0.88;;
74415;SDS011;62850;42.428;25.618;2023-04-03T00:09:32;1.77;;;0.82;;
74415;SDS011;62850;42.428;25.618;2023-04-03T00:11:58;2.05;;;1.00;;
74415;SDS011;62850;42.428;25.618;2023-04-03T00:14:23;2.35;;;0.95;;
74415;SDS011;62850;42.428;25.618;2023-04-03T00:16:49;2.35;;;1.00;;
74415;SDS011;62850;42.428;25.618;2023-04-03T00:19:14;2.72;;;1.00;;
74415;SDS011;62850;42.428;25.618;2023-04-03T00:21:40;3.33;;;1.20;;
74415;SDS011;62850;42.428;25.618;2023-04-03T00:24:05;2.70;;;1.20;;
74415;SDS011;62850;42.428;25.618;2023-04-03T00:26:31;2.92;;;1.30;;
74415;SDS011;62850;42.428;25.618;2023-04-03T00:28:57;4.15;;;1.35;;
74415;SDS011;62850;42.428;25.618;2023-04-03T00:31:22;3.42;;;1.52;;
74415;SDS011;62850;42.428;25.618;2023-04-03T00:33:48;4.93;;;1.63;;
74415;SDS011;62850;42.428;25.618;2023-04-03T00:36:13;4.95;;;2.30;;
74415;SDS011;62850;42.428;25.618;2023-04-03T00:38:40;6.75;;;2.30;;
74415;SDS011;62850;42.428;25.618;2023-04-03T00:41:06;3.58;;;1.60;;
74415;SDS011;62850;42.428;25.618;2023-04-03T00:43:32;4.20;;;1.58;;
74415;SDS011;62850;42.428;25.618;2023-04-03T00:45:58;4.13;;;1.90;;
74415;SDS011;62850;42.428;25.618;2023-04-03T00:50:55;3.30;;;1.90;;
74415;SDS011;62850;42.428;25.618;2023-04-03T00:53:23;3.55;;;1.60;;
74415;SDS011;62850;42.428;25.618;2023-04-03T00:55:52;3.92;;;1.42;;
74415;SDS011;62850;42.428;25.618;2023-04-03T00:58:20;2.97;;;1.38;;
74415;SDS011;62850;42.428;25.618;2023-04-03T01:00:53;3.58;;;1.40;;
74415;SDS011;62850;42.428;25.618;2023-04-03T01:03:23;3.40;;;1.63;;
74415;SDS011;62850;42.428;25.618;2023-04-03T01:05:49;3.20;;;1.40;;
74415;SDS011;62850;42.428;25.618;2023-04-03T01:08:15;3.30;;;1.70;;
74415;SDS011;62850;42.428;25.618;2023-04-03T01:10:41;4.35;;;1.58;;
74415;SDS011;62850;42.428;25.618;2023-04-03T01:13:19;4.32;;;1.48;;
74415;SDS011;62850;42.428;25.618;2023-04-03T01:15:47;4.43;;;1.38;;
74415;SDS011;62850;42.428;25.618;2023-04-03T01:18:13;3.47;;;1.40;;
74415;SDS011;62850;42.428;25.618;2023-04-03T01:20:50;3.90;;;1.40;;
74415;SDS011;62850;42.428;25.618;2023-04-03T01:23:40;3.42;;;1.30;;
74415;SDS011;62850;42.428;25.618;2023-04-03T01:26:18;3.38;;;1.52;;
74415;SDS011;62850;42.428;25.618;2023-04-03T01:28:45;3.17;;;1.27;;
74415;SDS011;62850;42.428;25.618;2023-04-03T01:34:00;4.80;;;1.38;;
74415;SDS011;62850;42.428;25.618;2023-04-03T01:36:27;4.47;;;1.77;;
74415;SDS011;62850;42.428;25.618;2023-04-03T01:38:54;3.22;;;1.48;;
74415;SDS011;62850;42.428;25.618;2023-04-03T01:41:20;5.22;;;1.33;;
74415;SDS011;62850;42.428;25.618;2023-04-03T01:43:46;3.50;;;1.35;;
74415;SDS011;62850;42.428;25.618;2023-04-03T01:46:12;3.72;;;1.13;;
74415;SDS011;62850;42.428;25.618;2023-04-03T01:48:37;2.20;;;1.10;;
74415;SDS011;62850;42.428;25.618;2023-04-03T01:51:03;2.58;;;1.13;;
74415;SDS011;62850;42.428;25.618;2023-04-03T01:53:29;2.42;;;1.10;;
74415;SDS011;62850;42.428;25.618;2023-04-03T01:55:54;2.20;;;1.05;;
74415;SDS011;62850;42.428;25.618;2023-04-03T01:58:20;3.60;;;1.10;;
74415;SDS011;62850;42.428;25.618;2023-04-03T02:00:45;3.83;;;1.35;;
74415;SDS011;62850;42.428;25.618;2023-04-03T02:03:11;4.78;;;1.95;;
74415;SDS011;62850;42.428;25.618;2023-04-03T02:05:37;3.65;;;1.45;;
74415;SDS011;62850;42.428;25.618;2023-04-03T02:08:03;4.20;;;1.35;;
74415;SDS011;62850;42.428;25.618;2023-04-03T02:10:28;4.72;;;1.40;;
74415;SDS011;62850;42.428;25.618;2023-04-03T02:12:54;3.53;;;1.35;;
74415;SDS011;62850;42.428;25.618;2023-04-03T02:15:19;3.50;;;1.45;;
74415;SDS011;62850;42.428;25.618;2023-04-03T02:17:45;2.45;;;1.00;;
74415;SDS011;62850;42.428;25.618;2023-04-03T02:20:11;3.15;;;1.35;;
74415;SDS011;62850;42.428;25.618;2023-04-03T02:22:36;4.53;;;1.27;;
74415;SDS011;62850;42.428;25.618;2023-04-03T02:25:02;2.85;;;1.20;;
74415;SDS011;62850;42.428;25.618;2023-04-03T02:27:28;4.55;;;1.20;;
74415;SDS011;62850;42.428;25.618;2023-04-03T02:29:53;4.25;;;1.20;;
74415;SDS011;62850;42.428;25.618;2023-04-03T02:32:18;2.42;;;1.13;;
74415;SDS011;62850;42.428;25.618;2023-04-03T02:34:44;4.60;;;1.15;;
74415;SDS011;62850;42.428;25.618;2023-04-03T02:37:09;2.20;;;1.10;;
74415;SDS011;62850;42.428;25.618;2023-04-03T02:39:35;5.18;;;1.35;;
74415;SDS011;62850;42.428;25.618;2023-04-03T02:42:00;6.70;;;1.40;;
74415;SDS011;62850;42.428;25.618;2023-04-03T02:44:26;6.72;;;1.63;;
74415;SDS011;62850;42.428;25.618;2023-04-03T02:46:51;9.77;;;1.85;;
74415;SDS011;62850;42.428;25.618;2023-04-03T02:49:17;3.40;;;1.40;;
74415;SDS011;62850;42.428;25.618;2023-04-03T02:51:43;5.10;;;1.30;;
74415;SDS011;62850;42.428;25.618;2023-04-03T02:54:08;3.25;;;1.40;;
74415;SDS011;62850;42.428;25.618;2023-04-03T02:56:35;5.28;;;1.25;;
74415;SDS011;62850;42.428;25.618;2023-04-03T02:59:00;5.38;;;1.40;;
74415;SDS011;62850;42.428;25.618;2023-04-03T03:01:26;4.60;;;1.10;;
74415;SDS011;62850;42.428;25.618;2023-04-03T03:03:57;5.75;;;1.30;;
74415;SDS011;62850;42.428;25.618;2023-04-03T03:06:23;3.28;;;1.40;;
74415;SDS011;62850;42.428;25.618;2023-04-03T03:08:49;6.15;;;1.40;;
74415;SDS011;62850;42.428;25.618;2023-04-03T03:11:15;4.93;;;1.73;;
74415;SDS011;62850;42.428;25.618;2023-04-03T03:13:40;3.97;;;1.65;;
74415;SDS011;62850;42.428;25.618;2023-04-03T03:16:06;5.78;;;1.35;;
74415;SDS011;62850;42.428;25.618;2023-04-03T03:18:32;4.53;;;1.10;;
74415;SDS011;62850;42.428;25.618;2023-04-03T03:20:59;6.28;;;1.40;;
74415;SDS011;62850;42.428;25.618;2023-04-03T03:23:26;5.25;;;1.45;;
74415;SDS011;62850;42.428;25.618;2023-04-03T03:25:56;5.68;;;1.45;;
74415;SDS011;62850;42.428;25.618;2023-04-03T03:28:26;5.43;;;1.50;;
74415;SDS011;62850;42.428;25.618;2023-04-03T03:30:52;5.22;;;1.90;;
74415;SDS011;62850;42.428;25.618;2023-04-03T03:33:18;7.78;;;1.85;;
74415;SDS011;62850;42.428;25.618;2023-04-03T03:35:44;3.85;;;2.03;;
74415;SDS011;62850;42.428;25.618;2023-04-03T03:38:09;5.45;;;2.20;;
74415;SDS011;62850;42.428;25.618;2023-04-03T03:40:35;5.28;;;2.42;;
74415;SDS011;62850;42.428;25.618;2023-04-03T03:43:01;6.18;;;2.13;;
74415;SDS011;62850;42.428;25.618;2023-04-03T03:45:26;10.55;;;2.60;;
74415;SDS011;62850;42.428;25.618;2023-04-03T03:47:52;5.85;;;2.15;;
74415;SDS011;62850;42.428;25.618;2023-04-03T03:50:17;4.05;;;2.13;;
74415;SDS011;62850;42.428;25.618;2023-04-03T03:52:43;2.78;;;1.27;;
74415;SDS011;62850;42.428;25.618;2023-04-03T03:55:09;2.75;;;1.25;;
74415;SDS011;62850;42.428;25.618;2023-04-03T03:57:35;2.85;;;1.20;;
74415;SDS011;62850;42.428;25.618;2023-04-03T04:00:00;6.63;;;1.92;;
74415;SDS011;62850;42.428;25.618;2023-04-03T04:02:26;2.38;;;1.20;;
74415;SDS011;62850;42.428;25.618;2023-04-03T04:04:51;3.67;;;1.30;;
74415;SDS011;62850;42.428;25.618;2023-04-03T04:07:17;9.45;;;2.53;;
74415;SDS011;62850;42.428;25.618;2023-04-03T04:09:42;6.03;;;1.75;;
74415;SDS011;62850;42.428;25.618;2023-04-03T04:12:08;6.32;;;1.73;;
74415;SDS011;62850;42.428;25.618;2023-04-03T04:14:33;5.72;;;1.77;;
74415;SDS011;62850;42.428;25.618;2023-04-03T04:16:59;5.65;;;1.70;;
74415;SDS011;62850;42.428;25.618;2023-04-03T04:19:24;8.73;;;1.80;;
74415;SDS011;62850;42.428;25.618;2023-04-03T04:21:50;8.13;;;1.90;;
74415;SDS011;62850;42.428;25.618;2023-04-03T04:24:15;5.47;;;1.77;;
74415;SDS011;62850;42.428;25.618;2023-04-03T04:26:41;12.25;;;2.00;;
74415;SDS011;62850;42.428;25.618;2023-04-03T04:29:08;7.45;;;2.47;;
74415;SDS011;62850;42.428;25.618;2023-04-03T04:31:34;9.85;;;2.60;;
74415;SDS011;62850;42.428;25.618;2023-04-03T04:34:00;11.15;;;3.10;;
74415;SDS011;62850;42.428;25.618;2023-04-03T04:36:25;5.78;;;2.80;;
74415;SDS011;62850;42.428;25.618;2023-04-03T04:38:51;12.63;;;3.80;;
74415;SDS011;62850;42.428;25.618;2023-04-03T04:41:19;9.77;;;5.47;;
74415;SDS011;62850;42.428;25.618;2023-04-03T04:43:47;12.25;;;4.68;;
74415;SDS011;62850;42.428;25.618;2023-04-03T04:46:15;7.45;;;3.63;;
74415;SDS011;62850;42.428;25.618;2023-04-03T04:48:41;16.25;;;8.10;;
74415;SDS011;62850;42.428;25.618;2023-04-03T04:51:07;22.33;;;10.85;;
74415;SDS011;62850;42.428;25.618;2023-04-03T04:53:32;22.83;;;12.13;;
74415;SDS011;62850;42.428;25.618;2023-04-03T04:55:58;22.73;;;10.77;;
74415;SDS011;62850;42.428;25.618;2023-04-03T04:58:24;27.88;;;8.85;;
74415;SDS011;62850;42.428;25.618;2023-04-03T05:00:57;19.13;;;6.78;;
74415;SDS011;62850;42.428;25.618;2023-04-03T05:03:24;16.33;;;7.10;;
74415;SDS011;62850;42.428;25.618;2023-04-03T05:05:49;13.30;;;5.93;;
74415;SDS011;62850;42.428;25.618;2023-04-03T05:08:15;10.38;;;3.88;;
74415;SDS011;62850;42.428;25.618;2023-04-03T05:10:40;9.60;;;3.47;;
74415;SDS011;62850;42.428;25.618;2023-04-03T05:13:07;7.35;;;2.97;;
74415;SDS011;62850;42.428;25.618;2023-04-03T05:15:32;13.38;;;4.32;;
74415;SDS011;62850;42.428;25.618;2023-04-03T05:17:58;15.75;;;5.43;;
74415;SDS011;62850;42.428;25.618;2023-04-03T05:20:23;21.08;;;8.32;;
74415;SDS011;62850;42.428;25.618;2023-04-03T05:22:49;11.73;;;3.50;;
74415;SDS011;62850;42.428;25.618;2023-04-03T05:25:14;11.25;;;3.75;;
74415;SDS011;62850;42.428;25.618;2023-04-03T05:27:40;8.30;;;3.63;;
74415;SDS011;62850;42.428;25.618;2023-04-03T05:30:06;9.73;;;2.40;;
74415;SDS011;62850;42.428;25.618;2023-04-03T05:32:32;5.20;;;2.40;;
74415;SDS011;62850;42.428;25.618;2023-04-03T05:34:57;6.60;;;2.10;;
74415;SDS011;62850;42.428;25.618;2023-04-03T05:37:23;5.20;;;2.03;;
74415;SDS011;62850;42.428;25.618;2023-04-03T05:39:48;6.43;;;2.28;;
74415;SDS011;62850;42.428;25.618;2023-04-03T05:42:14;13.82;;;2.65;;
74415;SDS011;62850;42.428;25.618;2023-04-03T05:44:40;8.68;;;2.70;;
74415;SDS011;62850;42.428;25.618;2023-04-03T05:47:06;5.15;;;2.40;;
74415;SDS011;62850;42.428;25.618;2023-04-03T05:49:32;6.53;;;2.58;;
74415;SDS011;62850;42.428;25.618;2023-04-03T05:51:57;6.88;;;2.83;;
74415;SDS011;62850;42.428;25.618;2023-04-03T05:54:24;10.57;;;3.00;;
74415;SDS011;62850;42.428;25.618;2023-04-03T05:56:51;6.90;;;2.53;;
74415;SDS011;62850;42.428;25.618;2023-04-03T05:59:17;7.15;;;2.75;;
74415;SDS011;62850;42.428;25.618;2023-04-03T06:01:43;10.40;;;3.28;;
74415;SDS011;62850;42.428;25.618;2023-04-03T06:04:09;8.90;;;3.50;;
74415;SDS011;62850;42.428;25.618;2023-04-03T06:06:49;8.00;;;2.95;;
74415;SDS011;62850;42.428;25.618;2023-04-03T06:09:18;6.20;;;2.60;;
74415;SDS011;62850;42.428;25.618;2023-04-03T06:11:44;5.25;;;2.20;;
74415;SDS011;62850;42.428;25.618;2023-04-03T06:14:11;7.15;;;2.60;;
74415;SDS011;62850;42.428;25.618;2023-04-03T06:16:36;10.00;;;2.53;;
74415;SDS011;62850;42.428;25.618;2023-04-03T06:19:03;13.50;;;2.47;;
74415;SDS011;62850;42.428;25.618;2023-04-03T06:21:29;5.00;;;2.25;;
74415;SDS011;62850;42.428;25.618;2023-04-03T06:23:55;4.80;;;1.98;;
74415;SDS011;62850;42.428;25.618;2023-04-03T06:26:20;4.63;;;2.00;;
74415;SDS011;62850;42.428;25.618;2023-04-03T06:28:46;5.70;;;2.55;;
74415;SDS011;62850;42.428;25.618;2023-04-03T06:31:11;24.48;;;7.30;;
74415;SDS011;62850;42.428;25.618;2023-04-03T06:33:37;30.05;;;8.25;;
74415;SDS011;62850;42.428;25.618;2023-04-03T06:36:05;32.08;;;9.10;;
74415;SDS011;62850;42.428;25.618;2023-04-03T06:38:32;47.25;;;11.35;;
74415;SDS011;62850;42.428;25.618;2023-04-03T06:40:59;41.17;;;12.98;;
74415;SDS011;62850;42.428;25.618;2023-04-03T06:43:25;39.05;;;12.25;;
74415;SDS011;62850;42.428;25.618;2023-04-03T06:45:51;38.58;;;12.23;;
74415;SDS011;62850;42.428;25.618;2023-04-03T06:48:16;32.28;;;10.73;;
74415;SDS011;62850;42.428;25.618;2023-04-03T06:50:42;41.65;;;10.48;;
74415;SDS011;62850;42.428;25.618;2023-04-03T06:53:08;38.35;;;11.40;;
74415;SDS011;62850;42.428;25.618;2023-04-03T06:55:34;32.15;;;11.18;;
74415;SDS011;62850;42.428;25.618;2023-04-03T06:58:00;34.55;;;10.82;;
74415;SDS011;62850;42.428;25.618;2023-04-03T07:00:26;26.48;;;9.43;;
74415;SDS011;62850;42.428;25.618;2023-04-03T07:02:52;23.13;;;8.40;;
74415;SDS011;62850;42.428;25.618;2023-04-03T07:05:18;30.05;;;8.77;;
74415;SDS011;62850;42.428;25.618;2023-04-03T07:07:44;25.80;;;8.25;;
74415;SDS011;62850;42.428;25.618;2023-04-03T07:10:09;23.75;;;8.05;;
74415;SDS011;62850;42.428;25.618;2023-04-03T07:12:36;22.77;;;7.78;;
74415;SDS011;62850;42.428;25.618;2023-04-03T07:15:02;27.67;;;7.90;;
74415;SDS011;62850;42.428;25.618;2023-04-03T07:17:29;21.23;;;7.97;;
74415;SDS011;62850;42.428;25.618;2023-04-03T07:19:55;28.10;;;13.35;;
74415;SDS011;62850;42.428;25.618;2023-04-03T07:22:20;26.95;;;13.27;;
74415;SDS011;62850;42.428;25.618;2023-04-03T07:24:46;20.90;;;12.27;;
74415;SDS011;62850;42.428;25.618;2023-04-03T07:27:11;14.00;;;8.13;;
74415;SDS011;62850;42.428;25.618;2023-04-03T07:29:37;17.67;;;7.05;;
74415;SDS011;62850;42.428;25.618;2023-04-03T07:32:04;14.00;;;5.22;;
74415;SDS011;62850;42.428;25.618;2023-04-03T07:34:30;15.27;;;4.35;;
74415;SDS011;62850;42.428;25.618;2023-04-03T07:36:56;13.35;;;4.07;;
74415;SDS011;62850;42.428;25.618;2023-04-03T07:39:22;11.30;;;4.32;;
74415;SDS011;62850;42.428;25.618;2023-04-03T07:41:48;10.40;;;4.30;;
74415;SDS011;62850;42.428;25.618;2023-04-03T07:44:13;9.15;;;4.07;;
74415;SDS011;62850;42.428;25.618;2023-04-03T07:46:39;10.57;;;3.40;;
74415;SDS011;62850;42.428;25.618;2023-04-03T07:49:05;10.27;;;4.22;;
74415;SDS011;62850;42.428;25.618;2023-04-03T07:51:31;13.63;;;3.90;;
74415;SDS011;62850;42.428;25.618;2023-04-03T07:53:57;7.75;;;3.60;;
74415;SDS011;62850;42.428;25.618;2023-04-03T07:56:22;7.03;;;3.72;;
74415;SDS011;62850;42.428;25.618;2023-04-03T07:58:48;17.98;;;4.18;;
74415;SDS011;62850;42.428;25.618;2023-04-03T08:01:13;10.07;;;3.45;;
74415;SDS011;62850;42.428;25.618;2023-04-03T08:03:39;9.05;;;3.42;;
74415;SDS011;62850;42.428;25.618;2023-04-03T08:06:05;7.13;;;3.50;;
74415;SDS011;62850;42.428;25.618;2023-04-03T08:08:32;7.13;;;3.50;;
74415;SDS011;62850;42.428;25.618;2023-04-03T08:10:59;10.85;;;3.70;;
74415;SDS011;62850;42.428;25.618;2023-04-03T08:13:25;8.40;;;4.82;;
74415;SDS011;62850;42.428;25.618;2023-04-03T08:15:51;9.10;;;5.70;;
74415;SDS011;62850;42.428;25.618;2023-04-03T08:18:17;12.93;;;7.07;;
74415;SDS011;62850;42.428;25.618;2023-04-03T08:20:46;12.38;;;8.35;;
74415;SDS011;62850;42.428;25.618;2023-04-03T08:23:12;14.32;;;8.27;;
74415;SDS011;62850;42.428;25.618;2023-04-03T08:25:40;13.00;;;8.23;;
74415;SDS011;62850;42.428;25.618;2023-04-03T08:28:07;14.60;;;8.10;;
74415;SDS011;62850;42.428;25.618;2023-04-03T08:30:34;13.00;;;7.40;;
74415;SDS011;62850;42.428;25.618;2023-04-03T08:33:00;10.85;;;5.32;;
74415;SDS011;62850;42.428;25.618;2023-04-03T08:35:26;10.00;;;4.35;;
74415;SDS011;62850;42.428;25.618;2023-04-03T08:37:52;6.45;;;3.65;;
74415;SDS011;62850;42.428;25.618;2023-04-03T08:40:17;6.53;;;3.65;;
74415;SDS011;62850;42.428;25.618;2023-04-03T08:51:01;5.15;;;2.40;;
74415;SDS011;62850;42.428;25.618;2023-04-03T08:53:31;11.48;;;2.25;;
74415;SDS011;62850;42.428;25.618;2023-04-03T08:56:02;4.30;;;1.70;;
74415;SDS011;62850;42.428;25.618;2023-04-03T08:58:33;5.57;;;1.80;;
74415;SDS011;62850;42.428;25.618;2023-04-03T09:03:48;9.80;;;2.85;;
74415;SDS011;62850;42.428;25.618;2023-04-03T09:06:20;9.80;;;2.55;;
74415;SDS011;62850;42.428;25.618;2023-04-03T09:23:22;3.75;;;1.30;;
74415;SDS011;62850;42.428;25.618;2023-04-03T09:25:48;3.60;;;1.50;;
74415;SDS011;62850;42.428;25.618;2023-04-03T09:28:16;3.75;;;1.35;;
74415;SDS011;62850;42.428;25.618;2023-04-03T09:30:41;4.75;;;1.58;;
74415;SDS011;62850;42.428;25.618;2023-04-03T09:33:07;3.58;;;1.52;;
74415;SDS011;62850;42.428;25.618;2023-04-03T09:35:35;2.95;;;1.30;;
74415;SDS011;62850;42.428;25.618;2023-04-03T09:45:49;3.28;;;1.38;;
74415;SDS011;62850;42.428;25.618;2023-04-03T09:48:17;5.40;;;1.60;;
74415;SDS011;62850;42.428;25.618;2023-04-03T09:56:19;3.90;;;1.00;;
74415;SDS011;62850;42.428;25.618;2023-04-03T09:58:52;5.50;;;1.10;;
74415;SDS011;62850;42.428;25.618;2023-04-03T10:06:39;7.35;;;1.55;;
74415;SDS011;62850;42.428;25.618;2023-04-03T10:12:20;4.13;;;1.42;;
74415;SDS011;62850;42.428;25.618;2023-04-03T10:20:02;4.68;;;1.15;;
74415;SDS011;62850;42.428;25.618;2023-04-03T10:22:38;4.55;;;1.40;;
74415;SDS011;62850;42.428;25.618;2023-04-03T10:33:20;4.78;;;1.80;;
74415;SDS011;62850;42.428;25.618;2023-04-03T10:38:39;4.00;;;1.48;;
74415;SDS011;62850;42.428;25.618;2023-04-03T10:47:20;6.43;;;1.83;;
74415;SDS011;62850;42.428;25.618;2023-04-03T10:58:37;5.35;;;2.53;;
74415;SDS011;62850;42.428;25.618;2023-04-03T11:01:08;8.63;;;3.55;;
74415;SDS011;62850;42.428;25.618;2023-04-03T11:03:39;9.93;;;3.53;;
74415;SDS011;62850;42.428;25.618;2023-04-03T11:06:09;10.90;;;3.88;;
74415;SDS011;62850;42.428;25.618;2023-04-03T11:11:13;12.00;;;4.50;;
74415;SDS011;62850;42.428;25.618;2023-04-03T11:13:51;11.45;;;3.92;;
74415;SDS011;62850;42.428;25.618;2023-04-03T11:16:26;5.60;;;3.50;;
74415;SDS011;62850;42.428;25.618;2023-04-03T11:19:04;9.00;;;3.20;;
74415;SDS011;62850;42.428;25.618;2023-04-03T11:21:44;7.68;;;3.53;;
74415;SDS011;62850;42.428;25.618;2023-04-03T11:24:31;9.32;;;3.67;;
74415;SDS011;62850;42.428;25.618;2023-04-03T11:26:58;12.52;;;3.92;;
74415;SDS011;62850;42.428;25.618;2023-04-03T11:29:35;10.65;;;4.13;;
74415;SDS011;62850;42.428;25.618;2023-04-03T11:36:59;12.38;;;3.63;;
74415;SDS011;62850;42.428;25.618;2023-04-03T11:39:33;8.05;;;3.17;;
74415;SDS011;62850;42.428;25.618;2023-04-03T11:47:44;12.85;;;4.28;;
74415;SDS011;62850;42.428;25.618;2023-04-03T12:05:54;9.68;;;3.80;;
74415;SDS011;62850;42.428;25.618;2023-04-03T12:47:34;13.43;;;6.18;;
74415;SDS011;62850;42.428;25.618;2023-04-03T12:50:04;16.23;;;7.15;;
74415;SDS011;62850;42.428;25.618;2023-04-03T12:52:43;17.42;;;7.25;;
74415;SDS011;62850;42.428;25.618;2023-04-03T12:55:15;14.85;;;7.30;;
74415;SDS011;62850;42.428;25.618;2023-04-03T12:57:45;14.40;;;7.28;;
74415;SDS011;62850;42.428;25.618;2023-04-03T13:00:32;17.20;;;7.80;;
74415;SDS011;62850;42.428;25.618;2023-04-03T13:02:59;13.10;;;6.65;;
74415;SDS011;62850;42.428;25.618;2023-04-03T13:05:26;16.95;;;7.40;;
74415;SDS011;62850;42.428;25.618;2023-04-03T13:08:04;14.80;;;7.07;;
74415;SDS011;62850;42.428;25.618;2023-04-03T13:10:49;15.50;;;8.90;;
74415;SDS011;62850;42.428;25.618;2023-04-03T13:13:19;14.50;;;9.63;;
74415;SDS011;62850;42.428;25.618;2023-04-03T13:15:46;22.88;;;10.02;;
74415;SDS011;62850;42.428;25.618;2023-04-03T13:18:31;15.98;;;9.48;;
74415;SDS011;62850;42.428;25.618;2023-04-03T13:21:02;18.27;;;10.55;;
74415;SDS011;62850;42.428;25.618;2023-04-03T13:23:28;18.55;;;11.10;;
74415;SDS011;62850;42.428;25.618;2023-04-03T13:25:56;17.65;;;9.48;;
74415;SDS011;62850;42.428;25.618;2023-04-03T13:28:26;15.40;;;9.38;;
74415;SDS011;62850;42.428;25.618;2023-04-03T13:30:56;13.23;;;8.43;;
74415;SDS011;62850;42.428;25.618;2023-04-03T13:33:24;20.10;;;8.30;;
74415;SDS011;62850;42.428;25.618;2023-04-03T13:35:56;14.93;;;8.18;;
74415;SDS011;62850;42.428;25.618;2023-04-03T13:38:28;16.08;;;7.93;;
74415;SDS011;62850;42.428;25.618;2023-04-03T13:41:00;15.73;;;7.68;;
74415;SDS011;62850;42.428;25.618;2023-04-03T13:43:32;12.13;;;6.70;;
74415;SDS011;62850;42.428;25.618;2023-04-03T13:48:51;16.30;;;7.30;;
74415;SDS011;62850;42.428;25.618;2023-04-03T13:51:24;14.15;;;7.03;;
74415;SDS011;62850;42.428;25.618;2023-04-03T13:53:53;11.85;;;6.22;;
74415;SDS011;62850;42.428;25.618;2023-04-03T13:56:25;14.52;;;6.95;;
74415;SDS011;62850;42.428;25.618;2023-04-03T13:58:57;14.80;;;6.63;;
74415;SDS011;62850;42.428;25.618;2023-04-03T14:01:47;15.30;;;5.97;;
74415;SDS011;62850;42.428;25.618;2023-04-03T14:04:53;11.57;;;5.57;;
74415;SDS011;62850;42.428;25.618;2023-04-03T14:07:22;13.48;;;6.30;;
74415;SDS011;62850;42.428;25.618;2023-04-03T14:09:49;13.77;;;7.15;;
74415;SDS011;62850;42.428;25.618;2023-04-03T14:12:21;13.68;;;6.57;;
74415;SDS011;62850;42.428;25.618;2023-04-03T14:15:03;12.77;;;5.70;;
74415;SDS011;62850;42.428;25.618;2023-04-03T14:17:32;14.38;;;6.07;;
74415;SDS011;62850;42.428;25.618;2023-04-03T14:19:58;14.32;;;6.40;;
74415;SDS011;62850;42.428;25.618;2023-04-03T14:22:30;15.18;;;5.90;;
74415;SDS011;62850;42.428;25.618;2023-04-03T14:24:57;10.20;;;6.05;;
74415;SDS011;62850;42.428;25.618;2023-04-03T14:27:42;14.13;;;5.22;;
74415;SDS011;62850;42.428;25.618;2023-04-03T14:30:14;10.02;;;5.22;;
74415;SDS011;62850;42.428;25.618;2023-04-03T14:32:51;10.52;;;5.10;;
74415;SDS011;62850;42.428;25.618;2023-04-03T14:35:16;15.52;;;6.72;;
74415;SDS011;62850;42.428;25.618;2023-04-03T14:37:43;14.05;;;6.57;;
74415;SDS011;62850;42.428;25.618;2023-04-03T14:40:11;15.00;;;6.95;;
74415;SDS011;62850;42.428;25.618;2023-04-03T14:42:39;11.57;;;5.15;;
74415;SDS011;62850;42.428;25.618;2023-04-03T14:45:06;9.20;;;5.30;;
74415;SDS011;62850;42.428;25.618;2023-04-03T14:47:43;15.30;;;5.80;;
74415;SDS011;62850;42.428;25.618;2023-04-03T14:50:14;9.73;;;4.88;;
74415;SDS011;62850;42.428;25.618;2023-04-03T14:52:42;13.60;;;6.53;;
74415;SDS011;62850;42.428;25.618;2023-04-03T14:55:08;15.35;;;5.53;;
74415;SDS011;62850;42.428;25.618;2023-04-03T14:57:34;11.90;;;5.00;;
74415;SDS011;62850;42.428;25.618;2023-04-03T15:00:00;9.70;;;4.80;;
74415;SDS011;62850;42.428;25.618;2023-04-03T15:02:32;7.82;;;4.35;;
74415;SDS011;62850;42.428;25.618;2023-04-03T15:04:59;8.50;;;4.90;;
74415;SDS011;62850;42.428;25.618;2023-04-03T15:07:29;10.05;;;4.72;;
74415;SDS011;62850;42.428;25.618;2023-04-03T15:09:57;7.50;;;4.47;;
74415;SDS011;62850;42.428;25.618;2023-04-03T15:12:26;12.32;;;5.40;;
74415;SDS011;62850;42.428;25.618;2023-04-03T15:14:52;9.50;;;4.53;;
74415;SDS011;62850;42.428;25.618;2023-04-03T15:17:18;9.00;;;4.88;;
74415;SDS011;62850;42.428;25.618;2023-04-03T15:19:46;7.85;;;4.07;;
74415;SDS011;62850;42.428;25.618;2023-04-03T15:22:15;8.77;;;3.72;;
74415;SDS011;62850;42.428;25.618;2023-04-03T15:24:43;16.55;;;5.43;;
74415;SDS011;62850;42.428;25.618;2023-04-03T15:27:09;23.67;;;8.57;;
74415;SDS011;62850;42.428;25.618;2023-04-03T15:29:36;13.82;;;5.65;;
74415;SDS011;62850;42.428;25.618;2023-04-03T15:32:02;11.93;;;4.47;;
74415;SDS011;62850;42.428;25.618;2023-04-03T15:34:28;23.15;;;9.13;;
74415;SDS011;62850;42.428;25.618;2023-04-03T15:36:54;8.23;;;4.00;;
74415;SDS011;62850;42.428;25.618;2023-04-03T15:39:19;6.20;;;3.50;;
74415;SDS011;62850;42.428;25.618;2023-04-03T15:41:45;12.77;;;4.60;;
74415;SDS011;62850;42.428;25.618;2023-04-03T15:44:11;14.30;;;5.78;;
74415;SDS011;62850;42.428;25.618;2023-04-03T15:46:37;10.35;;;3.90;;
74415;SDS011;62850;42.428;25.618;2023-04-03T15:49:03;11.73;;;4.63;;
74415;SDS011;62850;42.428;25.618;2023-04-03T15:51:30;14.90;;;6.15;;
74415;SDS011;62850;42.428;25.618;2023-04-03T15:53:56;11.85;;;4.78;;
74415;SDS011;62850;42.428;25.618;2023-04-03T15:56:21;10.63;;;4.18;;
74415;SDS011;62850;42.428;25.618;2023-04-03T15:58:47;10.50;;;3.83;;
74415;SDS011;62850;42.428;25.618;2023-04-03T16:01:12;4.97;;;2.80;;
74415;SDS011;62850;42.428;25.618;2023-04-03T16:03:39;5.70;;;3.00;;
74415;SDS011;62850;42.428;25.618;2023-04-03T16:06:10;5.32;;;2.80;;
74415;SDS011;62850;42.428;25.618;2023-04-03T16:08:37;6.85;;;3.38;;
74415;SDS011;62850;42.428;25.618;2023-04-03T16:11:02;4.88;;;2.60;;
74415;SDS011;62850;42.428;25.618;2023-04-03T16:13:28;5.13;;;2.35;;
74415;SDS011;62850;42.428;25.618;2023-04-03T16:15:54;3.95;;;2.20;;
74415;SDS011;62850;42.428;25.618;2023-04-03T16:18:20;5.20;;;2.47;;
74415;SDS011;62850;42.428;25.618;2023-04-03T16:20:45;5.53;;;2.33;;
74415;SDS011;62850;42.428;25.618;2023-04-03T16:23:11;5.43;;;2.88;;
74415;SDS011;62850;42.428;25.618;2023-04-03T16:25:37;7.38;;;3.53;;
74415;SDS011;62850;42.428;25.618;2023-04-03T16:28:02;7.13;;;3.65;;
74415;SDS011;62850;42.428;25.618;2023-04-03T16:30:28;6.25;;;3.90;;
74415;SDS011;62850;42.428;25.618;2023-04-03T16:32:54;7.70;;;4.03;;
74415;SDS011;62850;42.428;25.618;2023-04-03T16:35:20;6.75;;;4.50;;
74415;SDS011;62850;42.428;25.618;2023-04-03T16:37:46;10.38;;;4.65;;
74415;SDS011;62850;42.428;25.618;2023-04-03T16:40:12;7.78;;;4.82;;
74415;SDS011;62850;42.428;25.618;2023-04-03T16:42:37;8.45;;;4.40;;
74415;SDS011;62850;42.428;25.618;2023-04-03T16:45:03;7.35;;;3.92;;
74415;SDS011;62850;42.428;25.618;2023-04-03T16:47:30;7.95;;;4.15;;
74415;SDS011;62850;42.428;25.618;2023-04-03T16:49:56;9.32;;;4.22;;
74415;SDS011;62850;42.428;25.618;2023-04-03T16:52:21;8.18;;;4.15;;
74415;SDS011;62850;42.428;25.618;2023-04-03T16:54:47;7.50;;;4.05;;
74415;SDS011;62850;42.428;25.618;2023-04-03T16:57:13;5.97;;;3.33;;
74415;SDS011;62850;42.428;25.618;2023-04-03T16:59:38;8.73;;;3.72;;
74415;SDS011;62850;42.428;25.618;2023-04-03T17:02:04;7.05;;;4.30;;
74415;SDS011;62850;42.428;25.618;2023-04-03T17:04:29;8.35;;;4.43;;
74415;SDS011;62850;42.428;25.618;2023-04-03T17:06:55;9.65;;;5.50;;